sensor_id;sensor_type;location;lat;lon;timestamp;P1;durP1;ratioP1;P2;durP2;ratioP2
3359;SDS011;1693;49.602;11.046;2024-03-02T00:01:10;16.43;;;10.70;;
3359;SDS011;1693;49.602;11.046;2024-03-02T00:03:37;18.17;;;11.03;;
3359;SDS011;1693;49.602;11.046;2024-03-02T00:06:04;20.67;;;11.13;;
3359;SDS011;1693;49.602;11.046;2024-03-02T00:08:36;19.77;;;11.17;;
3359;SDS011;1693;49.602;11.046;2024-03-02T00:11:04;21.60;;;9.23;;
3359;SDS011;1693;49.602;11.046;2024-03-02T00:13:40;12.20;;;10.17;;
3359;SDS011;1693;49.602;11.046;2024-03-02T00:16:12;14.20;;;9.00;;
3359;SDS011;1693;49.602;11.046;2024-03-02T00:18:41;14.73;;;9.70;;
3359;SDS011;1693;49.602;11.046;2024-03-02T00:21:09;14.47;;;9.77;;
3359;SDS011;1693;49.602;11.046;2024-03-02T00:23:39;17.13;;;10.70;;
3359;SDS011;1693;49.602;11.046;2024-03-02T00:26:09;15.37;;;8.90;;
3359;SDS011;1693;49.602;11.046;2024-03-02T00:28:39;19.83;;;10.40;;
3359;SDS011;1693;49.602;11.046;2024-03-02T00:31:09;10.87;;;8.67;;
3359;SDS011;1693;49.602;11.046;2024-03-02T00:33:37;18.73;;;10.87;;
3359;SDS011;1693;49.602;11.046;2024-03-02T00:36:07;23.70;;;11.90;;
3359;SDS011;1693;49.602;11.046;2024-03-02T00:38:40;14.60;;;10.50;;
3359;SDS011;1693;49.602;11.046;2024-03-02T00:41:15;13.03;;;8.23;;
3359;SDS011;1693;49.602;11.046;2024-03-02T00:46:33;10.90;;;8.20;;
3359;SDS011;1693;49.602;11.046;2024-03-02T00:49:00;12.57;;;8.47;;
3359;SDS011;1693;49.602;11.046;2024-03-02T00:51:29;16.47;;;9.40;;
3359;SDS011;1693;49.602;11.046;2024-03-02T00:53:59;15.47;;;9.90;;
3359;SDS011;1693;49.602;11.046;2024-03-02T00:56:29;21.50;;;10.27;;
3359;SDS011;1693;49.602;11.046;2024-03-02T00:58:56;18.10;;;11.37;;
3359;SDS011;1693;49.602;11.046;2024-03-02T01:01:24;17.50;;;9.83;;
3359;SDS011;1693;49.602;11.046;2024-03-02T01:03:51;17.57;;;10.63;;
3359;SDS011;1693;49.602;11.046;2024-03-02T01:06:18;16.47;;;10.37;;
3359;SDS011;1693;49.602;11.046;2024-03-02T01:08:47;13.37;;;9.40;;
3359;SDS011;1693;49.602;11.046;2024-03-02T01:11:17;18.17;;;9.70;;
3359;SDS011;1693;49.602;11.046;2024-03-02T01:13:47;17.63;;;10.03;;
3359;SDS011;1693;49.602;11.046;2024-03-02T01:16:14;19.27;;;10.63;;
3359;SDS011;1693;49.602;11.046;2024-03-02T01:18:41;18.97;;;10.60;;
3359;SDS011;1693;49.602;11.046;2024-03-02T01:21:08;17.70;;;10.33;;
3359;SDS011;1693;49.602;11.046;2024-03-02T01:23:35;22.67;;;9.17;;
3359;SDS011;1693;49.602;11.046;2024-03-02T01:26:03;17.03;;;11.20;;
3359;SDS011;1693;49.602;11.046;2024-03-02T01:28:32;18.33;;;10.53;;
3359;SDS011;1693;49.602;11.046;2024-03-02T01:30:59;14.27;;;9.23;;
3359;SDS011;1693;49.602;11.046;2024-03-02T01:33:27;13.33;;;8.27;;
3359;SDS011;1693;49.602;11.046;2024-03-02T01:35:54;14.77;;;11.27;;
3359;SDS011;1693;49.602;11.046;2024-03-02T01:38:21;13.17;;;9.83;;
3359;SDS011;1693;49.602;11.046;2024-03-02T01:40:47;15.37;;;8.97;;
3359;SDS011;1693;49.602;11.046;2024-03-02T01:43:15;16.83;;;10.67;;
3359;SDS011;1693;49.602;11.046;2024-03-02T01:45:43;18.50;;;11.30;;
3359;SDS011;1693;49.602;11.046;2024-03-02T01:48:10;16.73;;;9.20;;
3359;SDS011;1693;49.602;11.046;2024-03-02T01:50:37;19.33;;;10.10;;
3359;SDS011;1693;49.602;11.046;2024-03-02T01:53:06;14.57;;;11.00;;
3359;SDS011;1693;49.602;11.046;2024-03-02T01:55:34;22.57;;;13.50;;
3359;SDS011;1693;49.602;11.046;2024-03-02T01:58:02;18.23;;;11.53;;
3359;SDS011;1693;49.602;11.046;2024-03-02T02:00:29;16.27;;;9.87;;
3359;SDS011;1693;49.602;11.046;2024-03-02T02:02:58;16.03;;;11.43;;
3359;SDS011;1693;49.602;11.046;2024-03-02T02:05:25;17.60;;;10.67;;
3359;SDS011;1693;49.602;11.046;2024-03-02T02:07:52;21.47;;;11.50;;
3359;SDS011;1693;49.602;11.046;2024-03-02T02:10:19;16.33;;;10.03;;
3359;SDS011;1693;49.602;11.046;2024-03-02T02:12:46;12.43;;;9.07;;
3359;SDS011;1693;49.602;11.046;2024-03-02T02:15:23;15.63;;;9.60;;
3359;SDS011;1693;49.602;11.046;2024-03-02T02:17:51;15.47;;;9.53;;
3359;SDS011;1693;49.602;11.046;2024-03-02T02:20:19;15.10;;;8.73;;
3359;SDS011;1693;49.602;11.046;2024-03-02T02:22:57;18.73;;;11.73;;
3359;SDS011;1693;49.602;11.046;2024-03-02T02:25:24;12.47;;;9.70;;
3359;SDS011;1693;49.602;11.046;2024-03-02T02:27:52;16.30;;;9.77;;
3359;SDS011;1693;49.602;11.046;2024-03-02T02:30:20;15.40;;;9.00;;
3359;SDS011;1693;49.602;11.046;2024-03-02T02:32:47;17.50;;;11.10;;
3359;SDS011;1693;49.602;11.046;2024-03-02T02:35:15;13.20;;;9.43;;
3359;SDS011;1693;49.602;11.046;2024-03-02T02:37:43;16.90;;;9.27;;
3359;SDS011;1693;49.602;11.046;2024-03-02T02:40:13;20.33;;;9.43;;
3359;SDS011;1693;49.602;11.046;2024-03-02T02:42:40;19.17;;;11.30;;
3359;SDS011;1693;49.602;11.046;2024-03-02T02:45:08;19.27;;;9.93;;
3359;SDS011;1693;49.602;11.046;2024-03-02T02:47:36;23.47;;;13.77;;
3359;SDS011;1693;49.602;11.046;2024-03-02T02:50:03;17.60;;;9.37;;
3359;SDS011;1693;49.602;11.046;2024-03-02T02:52:31;15.03;;;9.90;;
3359;SDS011;1693;49.602;11.046;2024-03-02T02:55:01;21.07;;;10.27;;
3359;SDS011;1693;49.602;11.046;2024-03-02T02:57:30;14.63;;;9.00;;
3359;SDS011;1693;49.602;11.046;2024-03-02T03:00:00;21.20;;;10.27;;
3359;SDS011;1693;49.602;11.046;2024-03-02T03:02:30;21.63;;;10.67;;
3359;SDS011;1693;49.602;11.046;2024-03-02T03:04:58;18.03;;;10.63;;
3359;SDS011;1693;49.602;11.046;2024-03-02T03:07:26;16.20;;;10.37;;
3359;SDS011;1693;49.602;11.046;2024-03-02T03:09:55;17.13;;;10.80;;
3359;SDS011;1693;49.602;11.046;2024-03-02T03:12:22;14.20;;;9.80;;
3359;SDS011;1693;49.602;11.046;2024-03-02T03:14:51;19.30;;;10.70;;
3359;SDS011;1693;49.602;11.046;2024-03-02T03:17:18;22.53;;;12.00;;
3359;SDS011;1693;49.602;11.046;2024-03-02T03:19:46;17.90;;;10.67;;
3359;SDS011;1693;49.602;11.046;2024-03-02T03:22:13;15.80;;;10.63;;
3359;SDS011;1693;49.602;11.046;2024-03-02T03:24:40;17.37;;;10.80;;
3359;SDS011;1693;49.602;11.046;2024-03-02T03:27:08;17.60;;;9.87;;
3359;SDS011;1693;49.602;11.046;2024-03-02T03:29:35;22.23;;;12.00;;
3359;SDS011;1693;49.602;11.046;2024-03-02T03:32:04;12.30;;;9.27;;
3359;SDS011;1693;49.602;11.046;2024-03-02T03:34:32;17.37;;;8.90;;
3359;SDS011;1693;49.602;11.046;2024-03-02T03:36:59;13.27;;;9.67;;
3359;SDS011;1693;49.602;11.046;2024-03-02T03:39:26;15.00;;;9.27;;
3359;SDS011;1693;49.602;11.046;2024-03-02T03:41:56;26.20;;;14.50;;
3359;SDS011;1693;49.602;11.046;2024-03-02T03:44:23;17.67;;;10.10;;
3359;SDS011;1693;49.602;11.046;2024-03-02T03:46:51;14.40;;;8.57;;
3359;SDS011;1693;49.602;11.046;2024-03-02T03:49:19;18.80;;;11.40;;
3359;SDS011;1693;49.602;11.046;2024-03-02T03:51:47;18.93;;;10.07;;
3359;SDS011;1693;49.602;11.046;2024-03-02T03:54:14;13.97;;;9.70;;
3359;SDS011;1693;49.602;11.046;2024-03-02T03:56:41;15.97;;;9.63;;
3359;SDS011;1693;49.602;11.046;2024-03-02T03:59:09;13.40;;;9.40;;
3359;SDS011;1693;49.602;11.046;2024-03-02T04:01:37;18.40;;;11.60;;
3359;SDS011;1693;49.602;11.046;2024-03-02T04:04:04;19.33;;;11.70;;
3359;SDS011;1693;49.602;11.046;2024-03-02T04:06:33;16.30;;;10.10;;
3359;SDS011;1693;49.602;11.046;2024-03-02T04:09:00;19.43;;;11.30;;
3359;SDS011;1693;49.602;11.046;2024-03-02T04:11:29;24.90;;;11.67;;
3359;SDS011;1693;49.602;11.046;2024-03-02T04:13:57;20.70;;;10.27;;
3359;SDS011;1693;49.602;11.046;2024-03-02T04:16:24;16.00;;;10.83;;
3359;SDS011;1693;49.602;11.046;2024-03-02T04:18:51;15.30;;;9.50;;
3359;SDS011;1693;49.602;11.046;2024-03-02T04:21:18;17.07;;;10.07;;
3359;SDS011;1693;49.602;11.046;2024-03-02T04:23:49;13.23;;;9.63;;
3359;SDS011;1693;49.602;11.046;2024-03-02T04:26:18;18.03;;;10.10;;
3359;SDS011;1693;49.602;11.046;2024-03-02T04:28:47;15.57;;;10.17;;
3359;SDS011;1693;49.602;11.046;2024-03-02T04:31:16;17.33;;;11.63;;
3359;SDS011;1693;49.602;11.046;2024-03-02T04:33:44;16.57;;;9.90;;
3359;SDS011;1693;49.602;11.046;2024-03-02T04:36:12;19.40;;;9.10;;
3359;SDS011;1693;49.602;11.046;2024-03-02T04:38:40;16.07;;;7.10;;
3359;SDS011;1693;49.602;11.046;2024-03-02T04:41:11;21.20;;;10.10;;
3359;SDS011;1693;49.602;11.046;2024-03-02T04:43:41;16.27;;;8.83;;
3359;SDS011;1693;49.602;11.046;2024-03-02T04:46:10;15.63;;;8.83;;
3359;SDS011;1693;49.602;11.046;2024-03-02T04:48:38;21.50;;;10.50;;
3359;SDS011;1693;49.602;11.046;2024-03-02T04:51:10;12.80;;;9.20;;
3359;SDS011;1693;49.602;11.046;2024-03-02T04:53:40;15.53;;;9.20;;
3359;SDS011;1693;49.602;11.046;2024-03-02T04:56:13;19.33;;;11.80;;
3359;SDS011;1693;49.602;11.046;2024-03-02T04:59:02;18.73;;;9.47;;
3359;SDS011;1693;49.602;11.046;2024-03-02T05:01:33;17.07;;;9.00;;
3359;SDS011;1693;49.602;11.046;2024-03-02T05:04:04;13.00;;;8.87;;
3359;SDS011;1693;49.602;11.046;2024-03-02T05:06:33;15.23;;;9.30;;
3359;SDS011;1693;49.602;11.046;2024-03-02T05:09:04;11.87;;;6.40;;
3359;SDS011;1693;49.602;11.046;2024-03-02T05:11:33;15.80;;;8.87;;
3359;SDS011;1693;49.602;11.046;2024-03-02T05:14:18;16.50;;;8.70;;
3359;SDS011;1693;49.602;11.046;2024-03-02T05:16:46;15.80;;;7.23;;
3359;SDS011;1693;49.602;11.046;2024-03-02T05:19:14;14.07;;;7.30;;
3359;SDS011;1693;49.602;11.046;2024-03-02T05:21:41;15.10;;;8.50;;
3359;SDS011;1693;49.602;11.046;2024-03-02T05:24:08;16.50;;;8.40;;
3359;SDS011;1693;49.602;11.046;2024-03-02T05:26:37;9.20;;;7.10;;
3359;SDS011;1693;49.602;11.046;2024-03-02T05:29:04;10.93;;;7.03;;
3359;SDS011;1693;49.602;11.046;2024-03-02T05:31:32;15.73;;;8.97;;
3359;SDS011;1693;49.602;11.046;2024-03-02T05:33:59;14.73;;;8.20;;
3359;SDS011;1693;49.602;11.046;2024-03-02T05:36:26;14.00;;;9.33;;
3359;SDS011;1693;49.602;11.046;2024-03-02T05:38:56;18.70;;;7.93;;
3359;SDS011;1693;49.602;11.046;2024-03-02T05:41:24;13.40;;;8.27;;
3359;SDS011;1693;49.602;11.046;2024-03-02T05:43:56;14.43;;;7.90;;
3359;SDS011;1693;49.602;11.046;2024-03-02T05:46:23;16.50;;;9.87;;
3359;SDS011;1693;49.602;11.046;2024-03-02T05:48:50;12.63;;;8.50;;
3359;SDS011;1693;49.602;11.046;2024-03-02T05:51:18;13.43;;;8.33;;
3359;SDS011;1693;49.602;11.046;2024-03-02T05:53:45;11.17;;;9.27;;
3359;SDS011;1693;49.602;11.046;2024-03-02T05:56:12;14.00;;;8.13;;
3359;SDS011;1693;49.602;11.046;2024-03-02T05:58:41;12.67;;;7.33;;
3359;SDS011;1693;49.602;11.046;2024-03-02T06:01:24;12.23;;;7.73;;
3359;SDS011;1693;49.602;11.046;2024-03-02T06:03:53;11.30;;;7.93;;
3359;SDS011;1693;49.602;11.046;2024-03-02T06:06:21;8.63;;;6.70;;
3359;SDS011;1693;49.602;11.046;2024-03-02T06:08:48;17.57;;;11.13;;
3359;SDS011;1693;49.602;11.046;2024-03-02T06:11:16;8.33;;;5.80;;
3359;SDS011;1693;49.602;11.046;2024-03-02T06:13:43;12.60;;;8.77;;
3359;SDS011;1693;49.602;11.046;2024-03-02T06:16:10;12.77;;;8.73;;
3359;SDS011;1693;49.602;11.046;2024-03-02T06:18:39;13.30;;;7.50;;
3359;SDS011;1693;49.602;11.046;2024-03-02T06:21:06;23.47;;;9.27;;
3359;SDS011;1693;49.602;11.046;2024-03-02T06:23:33;54.80;;;35.10;;
3359;SDS011;1693;49.602;11.046;2024-03-02T06:26:01;15.33;;;8.77;;
3359;SDS011;1693;49.602;11.046;2024-03-02T06:28:28;14.77;;;9.03;;
3359;SDS011;1693;49.602;11.046;2024-03-02T06:30:55;15.27;;;8.20;;
3359;SDS011;1693;49.602;11.046;2024-03-02T06:33:24;12.60;;;8.07;;
3359;SDS011;1693;49.602;11.046;2024-03-02T06:35:53;9.50;;;6.77;;
3359;SDS011;1693;49.602;11.046;2024-03-02T06:38:20;12.60;;;7.70;;
3359;SDS011;1693;49.602;11.046;2024-03-02T06:41:00;12.33;;;9.27;;
3359;SDS011;1693;49.602;11.046;2024-03-02T06:43:27;10.40;;;6.87;;
3359;SDS011;1693;49.602;11.046;2024-03-02T06:45:55;13.97;;;7.50;;
3359;SDS011;1693;49.602;11.046;2024-03-02T06:48:23;21.53;;;13.63;;
3359;SDS011;1693;49.602;11.046;2024-03-02T06:50:56;21.20;;;13.73;;
3359;SDS011;1693;49.602;11.046;2024-03-02T06:53:23;13.77;;;7.33;;
3359;SDS011;1693;49.602;11.046;2024-03-02T06:55:50;10.47;;;5.70;;
3359;SDS011;1693;49.602;11.046;2024-03-02T06:58:19;17.23;;;7.20;;
3359;SDS011;1693;49.602;11.046;2024-03-02T07:00:46;13.50;;;7.37;;
3359;SDS011;1693;49.602;11.046;2024-03-02T07:03:15;16.60;;;9.87;;
3359;SDS011;1693;49.602;11.046;2024-03-02T07:05:42;8.50;;;6.30;;
3359;SDS011;1693;49.602;11.046;2024-03-02T07:08:11;15.00;;;8.00;;
3359;SDS011;1693;49.602;11.046;2024-03-02T07:10:38;12.80;;;7.70;;
3359;SDS011;1693;49.602;11.046;2024-03-02T07:13:05;10.97;;;6.73;;
3359;SDS011;1693;49.602;11.046;2024-03-02T07:15:32;10.60;;;7.57;;
3359;SDS011;1693;49.602;11.046;2024-03-02T07:18:31;8.10;;;6.17;;
3359;SDS011;1693;49.602;11.046;2024-03-02T07:20:58;12.23;;;8.10;;
3359;SDS011;1693;49.602;11.046;2024-03-02T07:23:27;8.07;;;7.27;;
3359;SDS011;1693;49.602;11.046;2024-03-02T07:25:55;13.23;;;9.00;;
3359;SDS011;1693;49.602;11.046;2024-03-02T07:28:22;12.93;;;7.80;;
3359;SDS011;1693;49.602;11.046;2024-03-02T07:30:57;10.00;;;8.33;;
3359;SDS011;1693;49.602;11.046;2024-03-02T07:33:25;14.43;;;7.93;;
3359;SDS011;1693;49.602;11.046;2024-03-02T07:35:52;15.60;;;8.87;;
3359;SDS011;1693;49.602;11.046;2024-03-02T07:38:21;8.97;;;6.63;;
3359;SDS011;1693;49.602;11.046;2024-03-02T07:40:51;10.50;;;6.33;;
3359;SDS011;1693;49.602;11.046;2024-03-02T07:43:18;11.80;;;6.87;;
3359;SDS011;1693;49.602;11.046;2024-03-02T07:45:46;14.67;;;8.53;;
3359;SDS011;1693;49.602;11.046;2024-03-02T07:48:14;10.13;;;5.37;;
3359;SDS011;1693;49.602;11.046;2024-03-02T07:50:42;8.50;;;6.00;;
3359;SDS011;1693;49.602;11.046;2024-03-02T07:53:11;15.07;;;6.97;;
3359;SDS011;1693;49.602;11.046;2024-03-02T07:55:39;15.90;;;6.17;;
3359;SDS011;1693;49.602;11.046;2024-03-02T07:58:07;12.47;;;8.80;;
3359;SDS011;1693;49.602;11.046;2024-03-02T08:00:38;11.17;;;7.50;;
3359;SDS011;1693;49.602;11.046;2024-03-02T08:03:06;11.07;;;7.33;;
3359;SDS011;1693;49.602;11.046;2024-03-02T08:05:36;11.37;;;7.50;;
3359;SDS011;1693;49.602;11.046;2024-03-02T08:08:06;10.40;;;7.33;;
3359;SDS011;1693;49.602;11.046;2024-03-02T08:10:33;12.67;;;6.27;;
3359;SDS011;1693;49.602;11.046;2024-03-02T08:13:00;10.13;;;6.37;;
3359;SDS011;1693;49.602;11.046;2024-03-02T08:15:29;8.43;;;5.20;;
3359;SDS011;1693;49.602;11.046;2024-03-02T08:17:57;14.10;;;8.07;;
3359;SDS011;1693;49.602;11.046;2024-03-02T08:20:24;9.60;;;5.93;;
3359;SDS011;1693;49.602;11.046;2024-03-02T08:22:52;13.13;;;8.00;;
3359;SDS011;1693;49.602;11.046;2024-03-02T08:25:20;20.37;;;8.97;;
3359;SDS011;1693;49.602;11.046;2024-03-02T08:27:47;9.17;;;7.10;;
3359;SDS011;1693;49.602;11.046;2024-03-02T08:30:15;10.10;;;7.13;;
3359;SDS011;1693;49.602;11.046;2024-03-02T08:32:44;17.73;;;9.10;;
3359;SDS011;1693;49.602;11.046;2024-03-02T08:35:12;13.60;;;7.67;;
3359;SDS011;1693;49.602;11.046;2024-03-02T08:37:39;11.13;;;6.20;;
3359;SDS011;1693;49.602;11.046;2024-03-02T08:40:08;8.60;;;4.77;;
3359;SDS011;1693;49.602;11.046;2024-03-02T08:42:36;8.57;;;5.90;;
3359;SDS011;1693;49.602;11.046;2024-03-02T08:45:06;9.13;;;5.23;;
3359;SDS011;1693;49.602;11.046;2024-03-02T08:47:34;6.37;;;3.83;;
3359;SDS011;1693;49.602;11.046;2024-03-02T08:50:02;9.37;;;5.00;;
3359;SDS011;1693;49.602;11.046;2024-03-02T08:52:30;5.77;;;4.13;;
3359;SDS011;1693;49.602;11.046;2024-03-02T08:54:57;6.57;;;4.00;;
3359;SDS011;1693;49.602;11.046;2024-03-02T08:57:23;9.90;;;5.10;;
3359;SDS011;1693;49.602;11.046;2024-03-02T08:59:52;8.00;;;6.83;;
3359;SDS011;1693;49.602;11.046;2024-03-02T09:02:19;8.67;;;5.30;;
3359;SDS011;1693;49.602;11.046;2024-03-02T09:04:46;7.37;;;4.13;;
3359;SDS011;1693;49.602;11.046;2024-03-02T09:07:17;7.50;;;5.13;;
3359;SDS011;1693;49.602;11.046;2024-03-02T09:09:44;5.43;;;3.77;;
3359;SDS011;1693;49.602;11.046;2024-03-02T09:12:11;8.50;;;4.87;;
3359;SDS011;1693;49.602;11.046;2024-03-02T09:14:38;6.23;;;4.43;;
3359;SDS011;1693;49.602;11.046;2024-03-02T09:17:05;5.67;;;4.60;;
3359;SDS011;1693;49.602;11.046;2024-03-02T09:19:33;6.63;;;3.90;;
3359;SDS011;1693;49.602;11.046;2024-03-02T09:22:01;6.40;;;3.73;;
3359;SDS011;1693;49.602;11.046;2024-03-02T09:24:32;4.90;;;4.50;;
3359;SDS011;1693;49.602;11.046;2024-03-02T09:26:59;5.87;;;3.40;;
3359;SDS011;1693;49.602;11.046;2024-03-02T09:29:26;5.00;;;3.00;;
3359;SDS011;1693;49.602;11.046;2024-03-02T09:31:54;5.33;;;3.67;;
3359;SDS011;1693;49.602;11.046;2024-03-02T09:34:21;4.73;;;2.50;;
3359;SDS011;1693;49.602;11.046;2024-03-02T09:36:48;4.17;;;3.07;;
3359;SDS011;1693;49.602;11.046;2024-03-02T09:39:17;4.37;;;2.47;;
3359;SDS011;1693;49.602;11.046;2024-03-02T09:41:47;2.57;;;2.37;;
3359;SDS011;1693;49.602;11.046;2024-03-02T09:44:14;4.93;;;3.43;;
3359;SDS011;1693;49.602;11.046;2024-03-02T09:46:41;3.27;;;2.43;;
3359;SDS011;1693;49.602;11.046;2024-03-02T09:49:12;6.27;;;3.10;;
3359;SDS011;1693;49.602;11.046;2024-03-02T09:51:39;3.20;;;2.50;;
3359;SDS011;1693;49.602;11.046;2024-03-02T09:54:12;3.70;;;3.17;;
3359;SDS011;1693;49.602;11.046;2024-03-02T09:56:39;2.53;;;2.33;;
3359;SDS011;1693;49.602;11.046;2024-03-02T09:59:10;6.67;;;2.93;;
3359;SDS011;1693;49.602;11.046;2024-03-02T10:01:38;6.13;;;2.40;;
3359;SDS011;1693;49.602;11.046;2024-03-02T10:04:06;4.90;;;2.50;;
3359;SDS011;1693;49.602;11.046;2024-03-02T10:06:34;3.23;;;2.90;;
3359;SDS011;1693;49.602;11.046;2024-03-02T10:09:02;4.87;;;4.37;;
3359;SDS011;1693;49.602;11.046;2024-03-02T10:11:32;3.23;;;2.07;;
3359;SDS011;1693;49.602;11.046;2024-03-02T10:14:06;4.90;;;2.57;;
3359;SDS011;1693;49.602;11.046;2024-03-02T10:16:37;4.33;;;2.70;;
3359;SDS011;1693;49.602;11.046;2024-03-02T10:19:15;3.30;;;1.80;;
3359;SDS011;1693;49.602;11.046;2024-03-02T10:21:45;3.50;;;2.00;;
3359;SDS011;1693;49.602;11.046;2024-03-02T10:24:13;8.30;;;3.17;;
3359;SDS011;1693;49.602;11.046;2024-03-02T10:26:40;2.10;;;1.60;;
3359;SDS011;1693;49.602;11.046;2024-03-02T10:29:08;7.10;;;3.70;;
3359;SDS011;1693;49.602;11.046;2024-03-02T10:31:38;3.50;;;2.27;;
3359;SDS011;1693;49.602;11.046;2024-03-02T10:34:10;3.73;;;2.73;;
3359;SDS011;1693;49.602;11.046;2024-03-02T10:36:40;3.00;;;2.00;;
3359;SDS011;1693;49.602;11.046;2024-03-02T10:39:08;2.70;;;1.90;;
3359;SDS011;1693;49.602;11.046;2024-03-02T10:41:36;3.60;;;2.77;;
3359;SDS011;1693;49.602;11.046;2024-03-02T10:44:06;4.20;;;2.43;;
3359;SDS011;1693;49.602;11.046;2024-03-02T10:46:36;4.17;;;2.27;;
3359;SDS011;1693;49.602;11.046;2024-03-02T10:49:05;3.33;;;2.10;;
3359;SDS011;1693;49.602;11.046;2024-03-02T10:51:33;3.80;;;1.87;;
3359;SDS011;1693;49.602;11.046;2024-03-02T10:54:02;2.03;;;1.83;;
3359;SDS011;1693;49.602;11.046;2024-03-02T10:56:30;2.20;;;1.57;;
3359;SDS011;1693;49.602;11.046;2024-03-02T10:59:01;3.63;;;2.30;;
3359;SDS011;1693;49.602;11.046;2024-03-02T11:01:29;3.47;;;1.83;;
3359;SDS011;1693;49.602;11.046;2024-03-02T11:04:00;3.23;;;2.43;;
3359;SDS011;1693;49.602;11.046;2024-03-02T11:06:30;3.10;;;2.57;;
3359;SDS011;1693;49.602;11.046;2024-03-02T11:09:00;2.60;;;1.93;;
3359;SDS011;1693;49.602;11.046;2024-03-02T11:11:35;5.70;;;3.07;;
3359;SDS011;1693;49.602;11.046;2024-03-02T11:14:07;3.37;;;2.23;;
3359;SDS011;1693;49.602;11.046;2024-03-02T11:16:37;2.50;;;2.30;;
3359;SDS011;1693;49.602;11.046;2024-03-02T11:19:08;2.47;;;2.00;;
3359;SDS011;1693;49.602;11.046;2024-03-02T11:21:37;2.10;;;1.90;;
3359;SDS011;1693;49.602;11.046;2024-03-02T11:26:59;4.30;;;2.50;;
3359;SDS011;1693;49.602;11.046;2024-03-02T11:29:43;3.43;;;2.20;;
3359;SDS011;1693;49.602;11.046;2024-03-02T11:32:13;3.20;;;2.90;;
3359;SDS011;1693;49.602;11.046;2024-03-02T11:34:44;3.03;;;2.33;;
3359;SDS011;1693;49.602;11.046;2024-03-02T11:37:14;3.50;;;2.27;;
3359;SDS011;1693;49.602;11.046;2024-03-02T11:39:58;2.77;;;2.00;;
3359;SDS011;1693;49.602;11.046;2024-03-02T11:42:26;2.63;;;2.40;;
3359;SDS011;1693;49.602;11.046;2024-03-02T11:44:54;3.10;;;2.40;;
3359;SDS011;1693;49.602;11.046;2024-03-02T11:47:24;2.97;;;2.27;;
3359;SDS011;1693;49.602;11.046;2024-03-02T11:50:01;4.17;;;3.10;;
3359;SDS011;1693;49.602;11.046;2024-03-02T11:52:32;5.50;;;3.07;;
3359;SDS011;1693;49.602;11.046;2024-03-02T11:55:00;4.37;;;3.10;;
3359;SDS011;1693;49.602;11.046;2024-03-02T11:57:29;4.50;;;3.67;;
3359;SDS011;1693;49.602;11.046;2024-03-02T11:59:59;5.47;;;3.17;;
3359;SDS011;1693;49.602;11.046;2024-03-02T12:02:28;6.73;;;3.20;;
3359;SDS011;1693;49.602;11.046;2024-03-02T12:04:55;2.80;;;1.90;;
3359;SDS011;1693;49.602;11.046;2024-03-02T12:07:26;4.40;;;2.47;;
3359;SDS011;1693;49.602;11.046;2024-03-02T12:09:59;2.30;;;2.10;;
3359;SDS011;1693;49.602;11.046;2024-03-02T12:12:26;2.57;;;1.97;;
3359;SDS011;1693;49.602;11.046;2024-03-02T12:14:53;3.03;;;2.70;;
3359;SDS011;1693;49.602;11.046;2024-03-02T12:17:21;3.27;;;2.30;;
3359;SDS011;1693;49.602;11.046;2024-03-02T12:19:49;2.63;;;2.30;;
3359;SDS011;1693;49.602;11.046;2024-03-02T12:22:18;5.47;;;3.53;;
3359;SDS011;1693;49.602;11.046;2024-03-02T12:24:54;3.73;;;2.30;;
3359;SDS011;1693;49.602;11.046;2024-03-02T12:27:21;4.47;;;3.23;;
3359;SDS011;1693;49.602;11.046;2024-03-02T12:29:49;4.70;;;3.10;;
3359;SDS011;1693;49.602;11.046;2024-03-02T12:32:16;6.27;;;3.10;;
3359;SDS011;1693;49.602;11.046;2024-03-02T12:34:46;3.27;;;2.93;;
3359;SDS011;1693;49.602;11.046;2024-03-02T12:37:17;5.23;;;3.23;;
3359;SDS011;1693;49.602;11.046;2024-03-02T12:39:44;5.70;;;3.80;;
3359;SDS011;1693;49.602;11.046;2024-03-02T12:42:13;4.73;;;3.67;;
3359;SDS011;1693;49.602;11.046;2024-03-02T12:44:40;5.93;;;2.83;;
3359;SDS011;1693;49.602;11.046;2024-03-02T12:47:10;4.33;;;3.70;;
3359;SDS011;1693;49.602;11.046;2024-03-02T12:49:39;3.30;;;1.90;;
3359;SDS011;1693;49.602;11.046;2024-03-02T12:52:06;3.93;;;2.87;;
3359;SDS011;1693;49.602;11.046;2024-03-02T12:54:36;4.30;;;3.60;;
3359;SDS011;1693;49.602;11.046;2024-03-02T12:57:04;2.90;;;2.50;;
3359;SDS011;1693;49.602;11.046;2024-03-02T12:59:37;3.40;;;2.70;;
3359;SDS011;1693;49.602;11.046;2024-03-02T13:02:04;7.03;;;4.10;;
3359;SDS011;1693;49.602;11.046;2024-03-02T13:04:32;6.53;;;3.40;;
3359;SDS011;1693;49.602;11.046;2024-03-02T13:06:59;5.17;;;4.20;;
3359;SDS011;1693;49.602;11.046;2024-03-02T13:09:27;5.17;;;3.33;;
3359;SDS011;1693;49.602;11.046;2024-03-02T13:11:54;5.83;;;3.43;;
3359;SDS011;1693;49.602;11.046;2024-03-02T13:14:22;4.87;;;4.17;;
3359;SDS011;1693;49.602;11.046;2024-03-02T13:16:55;5.87;;;3.83;;
3359;SDS011;1693;49.602;11.046;2024-03-02T13:19:25;3.97;;;2.80;;
3359;SDS011;1693;49.602;11.046;2024-03-02T13:21:56;3.27;;;2.93;;
3359;SDS011;1693;49.602;11.046;2024-03-02T13:24:23;4.43;;;3.70;;
3359;SDS011;1693;49.602;11.046;2024-03-02T13:26:53;7.30;;;3.53;;
3359;SDS011;1693;49.602;11.046;2024-03-02T13:29:23;6.20;;;3.97;;
3359;SDS011;1693;49.602;11.046;2024-03-02T13:31:50;11.93;;;4.57;;
3359;SDS011;1693;49.602;11.046;2024-03-02T13:34:19;6.00;;;4.10;;
3359;SDS011;1693;49.602;11.046;2024-03-02T13:36:46;11.13;;;4.27;;
3359;SDS011;1693;49.602;11.046;2024-03-02T13:39:13;4.50;;;3.30;;
3359;SDS011;1693;49.602;11.046;2024-03-02T13:41:40;5.20;;;4.50;;
3359;SDS011;1693;49.602;11.046;2024-03-02T13:44:09;4.97;;;3.27;;
3359;SDS011;1693;49.602;11.046;2024-03-02T13:46:37;13.63;;;4.43;;
3359;SDS011;1693;49.602;11.046;2024-03-02T13:49:04;4.00;;;3.40;;
3359;SDS011;1693;49.602;11.046;2024-03-02T13:51:32;4.80;;;4.07;;
3359;SDS011;1693;49.602;11.046;2024-03-02T13:53:59;6.07;;;3.17;;
3359;SDS011;1693;49.602;11.046;2024-03-02T13:56:28;5.50;;;4.27;;
3359;SDS011;1693;49.602;11.046;2024-03-02T13:58:55;5.27;;;2.60;;
3359;SDS011;1693;49.602;11.046;2024-03-02T14:01:22;5.07;;;3.70;;
3359;SDS011;1693;49.602;11.046;2024-03-02T14:03:50;6.77;;;3.80;;
3359;SDS011;1693;49.602;11.046;2024-03-02T14:06:19;4.93;;;3.50;;
3359;SDS011;1693;49.602;11.046;2024-03-02T14:08:48;4.33;;;3.10;;
3359;SDS011;1693;49.602;11.046;2024-03-02T14:11:15;4.27;;;3.50;;
3359;SDS011;1693;49.602;11.046;2024-03-02T14:13:42;4.97;;;2.70;;
3359;SDS011;1693;49.602;11.046;2024-03-02T14:16:14;4.13;;;3.17;;
3359;SDS011;1693;49.602;11.046;2024-03-02T14:18:43;6.90;;;4.53;;
3359;SDS011;1693;49.602;11.046;2024-03-02T14:21:11;4.90;;;3.30;;
3359;SDS011;1693;49.602;11.046;2024-03-02T14:23:38;7.10;;;3.40;;
3359;SDS011;1693;49.602;11.046;2024-03-02T14:26:09;5.17;;;3.80;;
3359;SDS011;1693;49.602;11.046;2024-03-02T14:28:38;5.90;;;2.93;;
3359;SDS011;1693;49.602;11.046;2024-03-02T14:31:06;4.50;;;3.60;;
3359;SDS011;1693;49.602;11.046;2024-03-02T14:33:35;4.53;;;3.13;;
3359;SDS011;1693;49.602;11.046;2024-03-02T14:36:18;10.13;;;7.17;;
3359;SDS011;1693;49.602;11.046;2024-03-02T14:38:46;4.67;;;3.13;;
3359;SDS011;1693;49.602;11.046;2024-03-02T14:41:15;4.17;;;2.73;;
3359;SDS011;1693;49.602;11.046;2024-03-02T14:43:43;5.80;;;3.60;;
3359;SDS011;1693;49.602;11.046;2024-03-02T14:46:13;6.00;;;2.90;;
3359;SDS011;1693;49.602;11.046;2024-03-02T14:48:49;6.87;;;3.50;;
3359;SDS011;1693;49.602;11.046;2024-03-02T14:51:16;5.23;;;3.03;;
3359;SDS011;1693;49.602;11.046;2024-03-02T14:53:43;15.93;;;11.30;;
3359;SDS011;1693;49.602;11.046;2024-03-02T14:56:10;6.50;;;4.40;;
3359;SDS011;1693;49.602;11.046;2024-03-02T14:58:40;8.80;;;5.27;;
3359;SDS011;1693;49.602;11.046;2024-03-02T15:01:07;4.70;;;3.60;;
3359;SDS011;1693;49.602;11.046;2024-03-02T15:03:34;5.90;;;4.40;;
3359;SDS011;1693;49.602;11.046;2024-03-02T15:06:02;9.70;;;5.03;;